sensor_id;sensor_type;location;lat;lon;timestamp;P1;durP1;ratioP1;P2;durP2;ratioP2
74465;SDS011;62916;50.044;15.938;2024-02-21T00:00:25;4.60;;;2.40;;
74465;SDS011;62916;50.044;15.938;2024-02-21T00:02:55;3.90;;;1.90;;
74465;SDS011;62916;50.044;15.938;2024-02-21T00:05:28;3.70;;;2.00;;
74465;SDS011;62916;50.044;15.938;2024-02-21T00:07:59;4.60;;;2.00;;
74465;SDS011;62916;50.044;15.938;2024-02-21T00:10:31;3.30;;;2.00;;
74465;SDS011;62916;50.044;15.938;2024-02-21T00:13:03;3.90;;;2.10;;
74465;SDS011;62916;50.044;15.938;2024-02-21T00:15:34;3.00;;;1.80;;
74465;SDS011;62916;50.044;15.938;2024-02-21T00:18:05;3.70;;;2.40;;
74465;SDS011;62916;50.044;15.938;2024-02-21T00:20:39;3.60;;;1.90;;
74465;SDS011;62916;50.044;15.938;2024-02-21T00:23:09;3.40;;;1.80;;
74465;SDS011;62916;50.044;15.938;2024-02-21T00:25:40;2.40;;;2.00;;
74465;SDS011;62916;50.044;15.938;2024-02-21T00:28:11;2.90;;;2.00;;
74465;SDS011;62916;50.044;15.938;2024-02-21T00:30:42;4.00;;;2.00;;
74465;SDS011;62916;50.044;15.938;2024-02-21T00:33:13;2.70;;;1.70;;
74465;SDS011;62916;50.044;15.938;2024-02-21T00:35:44;4.80;;;2.10;;
74465;SDS011;62916;50.044;15.938;2024-02-21T00:38:14;2.70;;;1.90;;
74465;SDS011;62916;50.044;15.938;2024-02-21T00:40:45;4.20;;;1.90;;
74465;SDS011;62916;50.044;15.938;2024-02-21T00:43:16;4.00;;;2.00;;
74465;SDS011;62916;50.044;15.938;2024-02-21T00:45:47;4.00;;;2.30;;
74465;SDS011;62916;50.044;15.938;2024-02-21T00:48:18;2.70;;;1.70;;
74465;SDS011;62916;50.044;15.938;2024-02-21T00:50:49;2.90;;;1.60;;
74465;SDS011;62916;50.044;15.938;2024-02-21T00:53:20;2.90;;;1.90;;
74465;SDS011;62916;50.044;15.938;2024-02-21T00:55:51;3.60;;;1.90;;
74465;SDS011;62916;50.044;15.938;2024-02-21T00:58:22;3.60;;;1.80;;
74465;SDS011;62916;50.044;15.938;2024-02-21T01:00:53;3.50;;;1.80;;
74465;SDS011;62916;50.044;15.938;2024-02-21T01:03:23;3.50;;;2.20;;
74465;SDS011;62916;50.044;15.938;2024-02-21T01:05:55;3.00;;;1.60;;
74465;SDS011;62916;50.044;15.938;2024-02-21T01:08:25;3.70;;;2.00;;
74465;SDS011;62916;50.044;15.938;2024-02-21T01:10:56;3.50;;;1.50;;
74465;SDS011;62916;50.044;15.938;2024-02-21T01:13:27;3.10;;;2.10;;
74465;SDS011;62916;50.044;15.938;2024-02-21T01:15:58;3.00;;;1.60;;
74465;SDS011;62916;50.044;15.938;2024-02-21T01:18:29;3.70;;;2.40;;
74465;SDS011;62916;50.044;15.938;2024-02-21T01:21:00;2.90;;;1.60;;
74465;SDS011;62916;50.044;15.938;2024-02-21T01:23:34;2.70;;;1.70;;
74465;SDS011;62916;50.044;15.938;2024-02-21T01:26:09;3.60;;;1.90;;
74465;SDS011;62916;50.044;15.938;2024-02-21T01:28:41;3.40;;;1.60;;
74465;SDS011;62916;50.044;15.938;2024-02-21T01:31:12;2.70;;;1.90;;
74465;SDS011;62916;50.044;15.938;2024-02-21T01:33:43;3.20;;;1.60;;
74465;SDS011;62916;50.044;15.938;2024-02-21T01:36:14;3.80;;;2.00;;
74465;SDS011;62916;50.044;15.938;2024-02-21T01:38:46;3.00;;;1.70;;
74465;SDS011;62916;50.044;15.938;2024-02-21T01:41:17;3.30;;;1.90;;
74465;SDS011;62916;50.044;15.938;2024-02-21T01:43:48;2.10;;;1.60;;
74465;SDS011;62916;50.044;15.938;2024-02-21T01:46:21;2.90;;;1.70;;
74465;SDS011;62916;50.044;15.938;2024-02-21T01:48:56;4.20;;;2.10;;
74465;SDS011;62916;50.044;15.938;2024-02-21T01:51:27;3.60;;;1.50;;
74465;SDS011;62916;50.044;15.938;2024-02-21T01:53:59;3.70;;;2.00;;
74465;SDS011;62916;50.044;15.938;2024-02-21T01:56:30;4.20;;;1.90;;
74465;SDS011;62916;50.044;15.938;2024-02-21T01:59:02;3.30;;;2.00;;
74465;SDS011;62916;50.044;15.938;2024-02-21T02:01:32;2.20;;;1.50;;
74465;SDS011;62916;50.044;15.938;2024-02-21T02:04:03;3.10;;;1.90;;
74465;SDS011;62916;50.044;15.938;2024-02-21T02:06:35;3.00;;;1.50;;
74465;SDS011;62916;50.044;15.938;2024-02-21T02:09:06;3.10;;;1.80;;
74465;SDS011;62916;50.044;15.938;2024-02-21T02:11:37;3.00;;;1.60;;
74465;SDS011;62916;50.044;15.938;2024-02-21T02:14:08;2.70;;;1.70;;
74465;SDS011;62916;50.044;15.938;2024-02-21T02:16:39;3.20;;;1.60;;
74465;SDS011;62916;50.044;15.938;2024-02-21T02:19:10;2.30;;;1.30;;
74465;SDS011;62916;50.044;15.938;2024-02-21T02:21:42;2.10;;;1.40;;
74465;SDS011;62916;50.044;15.938;2024-02-21T02:24:24;2.50;;;1.70;;
74465;SDS011;62916;50.044;15.938;2024-02-21T02:26:56;2.70;;;1.80;;
74465;SDS011;62916;50.044;15.938;2024-02-21T02:29:26;3.00;;;1.60;;
74465;SDS011;62916;50.044;15.938;2024-02-21T02:31:57;2.40;;;1.40;;
74465;SDS011;62916;50.044;15.938;2024-02-21T02:34:28;3.50;;;1.40;;
74465;SDS011;62916;50.044;15.938;2024-02-21T02:36:59;2.60;;;1.40;;
74465;SDS011;62916;50.044;15.938;2024-02-21T02:39:30;2.60;;;1.50;;
74465;SDS011;62916;50.044;15.938;2024-02-21T02:42:01;2.70;;;1.60;;
74465;SDS011;62916;50.044;15.938;2024-02-21T02:44:32;2.90;;;1.70;;
74465;SDS011;62916;50.044;15.938;2024-02-21T02:47:03;2.40;;;1.70;;
74465;SDS011;62916;50.044;15.938;2024-02-21T02:49:34;2.60;;;1.30;;
74465;SDS011;62916;50.044;15.938;2024-02-21T02:52:05;2.90;;;1.30;;
74465;SDS011;62916;50.044;15.938;2024-02-21T02:54:35;2.50;;;1.60;;
74465;SDS011;62916;50.044;15.938;2024-02-21T02:57:06;2.60;;;1.60;;
74465;SDS011;62916;50.044;15.938;2024-02-21T02:59:37;2.50;;;1.40;;
74465;SDS011;62916;50.044;15.938;2024-02-21T03:02:08;3.10;;;1.20;;
74465;SDS011;62916;50.044;15.938;2024-02-21T03:04:40;2.50;;;1.40;;
74465;SDS011;62916;50.044;15.938;2024-02-21T03:07:11;2.30;;;1.60;;
74465;SDS011;62916;50.044;15.938;2024-02-21T03:09:43;2.60;;;1.50;;
74465;SDS011;62916;50.044;15.938;2024-02-21T03:12:13;3.20;;;1.50;;
74465;SDS011;62916;50.044;15.938;2024-02-21T03:14:51;2.30;;;1.10;;
74465;SDS011;62916;50.044;15.938;2024-02-21T03:17:22;2.40;;;1.60;;
74465;SDS011;62916;50.044;15.938;2024-02-21T03:19:54;3.40;;;1.30;;
74465;SDS011;62916;50.044;15.938;2024-02-21T03:22:25;2.60;;;1.50;;
74465;SDS011;62916;50.044;15.938;2024-02-21T03:24:56;2.10;;;1.60;;
74465;SDS011;62916;50.044;15.938;2024-02-21T03:27:27;2.60;;;1.50;;
74465;SDS011;62916;50.044;15.938;2024-02-21T03:29:58;3.20;;;1.20;;
74465;SDS011;62916;50.044;15.938;2024-02-21T03:32:29;3.10;;;1.40;;
74465;SDS011;62916;50.044;15.938;2024-02-21T03:35:00;2.70;;;1.30;;
74465;SDS011;62916;50.044;15.938;2024-02-21T03:37:31;2.30;;;1.50;;
74465;SDS011;62916;50.044;15.938;2024-02-21T03:40:02;2.00;;;1.40;;
74465;SDS011;62916;50.044;15.938;2024-02-21T03:42:38;2.10;;;1.80;;
74465;SDS011;62916;50.044;15.938;2024-02-21T03:45:10;2.70;;;1.70;;
74465;SDS011;62916;50.044;15.938;2024-02-21T03:47:40;2.40;;;1.30;;
74465;SDS011;62916;50.044;15.938;2024-02-21T03:50:12;2.80;;;1.60;;
74465;SDS011;62916;50.044;15.938;2024-02-21T03:52:45;2.80;;;1.40;;
74465;SDS011;62916;50.044;15.938;2024-02-21T03:55:16;3.40;;;1.40;;
74465;SDS011;62916;50.044;15.938;2024-02-21T03:57:47;2.10;;;1.30;;
74465;SDS011;62916;50.044;15.938;2024-02-21T04:00:18;2.20;;;1.30;;
74465;SDS011;62916;50.044;15.938;2024-02-21T04:02:49;2.80;;;1.90;;
74465;SDS011;62916;50.044;15.938;2024-02-21T04:05:20;1.70;;;1.30;;
74465;SDS011;62916;50.044;15.938;2024-02-21T04:07:51;2.20;;;1.10;;
74465;SDS011;62916;50.044;15.938;2024-02-21T04:10:22;2.00;;;1.40;;
74465;SDS011;62916;50.044;15.938;2024-02-21T04:12:53;2.30;;;1.20;;
74465;SDS011;62916;50.044;15.938;2024-02-21T04:15:23;1.90;;;1.10;;
74465;SDS011;62916;50.044;15.938;2024-02-21T04:17:54;1.60;;;0.90;;
74465;SDS011;62916;50.044;15.938;2024-02-21T04:20:25;2.50;;;1.30;;
74465;SDS011;62916;50.044;15.938;2024-02-21T04:22:57;2.90;;;1.50;;
74465;SDS011;62916;50.044;15.938;2024-02-21T04:25:28;2.50;;;1.40;;
74465;SDS011;62916;50.044;15.938;2024-02-21T04:27:59;2.50;;;1.50;;
74465;SDS011;62916;50.044;15.938;2024-02-21T04:30:30;2.40;;;1.30;;
74465;SDS011;62916;50.044;15.938;2024-02-21T04:33:01;2.70;;;1.70;;
74465;SDS011;62916;50.044;15.938;2024-02-21T04:35:32;1.70;;;1.20;;
74465;SDS011;62916;50.044;15.938;2024-02-21T04:38:05;1.70;;;1.50;;
74465;SDS011;62916;50.044;15.938;2024-02-21T04:40:35;2.70;;;1.60;;
74465;SDS011;62916;50.044;15.938;2024-02-21T04:43:06;2.30;;;1.20;;
74465;SDS011;62916;50.044;15.938;2024-02-21T04:45:37;1.70;;;1.30;;
74465;SDS011;62916;50.044;15.938;2024-02-21T04:48:08;1.80;;;1.00;;
74465;SDS011;62916;50.044;15.938;2024-02-21T04:50:39;2.50;;;1.20;;
74465;SDS011;62916;50.044;15.938;2024-02-21T04:53:10;2.30;;;1.40;;
74465;SDS011;62916;50.044;15.938;2024-02-21T04:55:41;1.60;;;1.10;;
74465;SDS011;62916;50.044;15.938;2024-02-21T04:58:12;1.80;;;1.00;;
74465;SDS011;62916;50.044;15.938;2024-02-21T05:00:43;2.60;;;1.50;;
74465;SDS011;62916;50.044;15.938;2024-02-21T05:03:14;1.80;;;1.20;;
74465;SDS011;62916;50.044;15.938;2024-02-21T05:05:44;2.00;;;1.30;;
74465;SDS011;62916;50.044;15.938;2024-02-21T05:08:15;2.80;;;1.30;;
74465;SDS011;62916;50.044;15.938;2024-02-21T05:10:46;2.00;;;1.40;;
74465;SDS011;62916;50.044;15.938;2024-02-21T05:13:17;2.20;;;1.10;;
74465;SDS011;62916;50.044;15.938;2024-02-21T05:15:48;7.50;;;2.70;;
74465;SDS011;62916;50.044;15.938;2024-02-21T05:18:18;12.50;;;2.70;;
74465;SDS011;62916;50.044;15.938;2024-02-21T05:20:49;9.80;;;2.10;;
74465;SDS011;62916;50.044;15.938;2024-02-21T05:23:20;13.00;;;2.40;;
74465;SDS011;62916;50.044;15.938;2024-02-21T05:25:51;12.60;;;2.50;;
74465;SDS011;62916;50.044;15.938;2024-02-21T05:28:22;13.80;;;2.20;;
74465;SDS011;62916;50.044;15.938;2024-02-21T05:30:53;7.90;;;1.80;;
74465;SDS011;62916;50.044;15.938;2024-02-21T05:33:24;8.30;;;2.20;;
74465;SDS011;62916;50.044;15.938;2024-02-21T05:54:18;8.10;;;1.90;;
74465;SDS011;62916;50.044;15.938;2024-02-21T05:56:49;7.50;;;2.30;;
74465;SDS011;62916;50.044;15.938;2024-02-21T05:59:23;7.00;;;1.90;;
74465;SDS011;62916;50.044;15.938;2024-02-21T06:01:57;8.30;;;2.40;;
74465;SDS011;62916;50.044;15.938;2024-02-21T06:04:28;8.20;;;1.80;;
74465;SDS011;62916;50.044;15.938;2024-02-21T06:06:59;6.90;;;1.90;;
74465;SDS011;62916;50.044;15.938;2024-02-21T06:09:30;7.40;;;1.50;;
74465;SDS011;62916;50.044;15.938;2024-02-21T06:12:01;7.00;;;2.30;;
74465;SDS011;62916;50.044;15.938;2024-02-21T06:14:32;5.10;;;1.60;;
74465;SDS011;62916;50.044;15.938;2024-02-21T06:17:03;4.50;;;1.70;;
74465;SDS011;62916;50.044;15.938;2024-02-21T06:19:34;6.70;;;1.90;;
74465;SDS011;62916;50.044;15.938;2024-02-21T06:22:05;7.90;;;2.20;;
74465;SDS011;62916;50.044;15.938;2024-02-21T06:24:36;6.00;;;1.30;;
74465;SDS011;62916;50.044;15.938;2024-02-21T06:27:08;7.60;;;1.80;;
74465;SDS011;62916;50.044;15.938;2024-02-21T06:29:39;6.10;;;1.80;;
74465;SDS011;62916;50.044;15.938;2024-02-21T06:32:10;4.90;;;1.70;;
74465;SDS011;62916;50.044;15.938;2024-02-21T06:34:41;3.60;;;1.60;;
74465;SDS011;62916;50.044;15.938;2024-02-21T06:37:12;6.60;;;1.80;;
74465;SDS011;62916;50.044;15.938;2024-02-21T06:39:43;3.70;;;1.40;;
74465;SDS011;62916;50.044;15.938;2024-02-21T06:42:13;6.00;;;1.90;;
74465;SDS011;62916;50.044;15.938;2024-02-21T06:44:45;3.80;;;1.30;;
74465;SDS011;62916;50.044;15.938;2024-02-21T06:47:16;3.20;;;1.30;;
74465;SDS011;62916;50.044;15.938;2024-02-21T06:49:49;6.40;;;1.40;;
74465;SDS011;62916;50.044;15.938;2024-02-21T06:52:20;6.50;;;1.60;;
74465;SDS011;62916;50.044;15.938;2024-02-21T06:54:52;5.00;;;1.70;;
74465;SDS011;62916;50.044;15.938;2024-02-21T06:57:23;4.70;;;1.70;;
74465;SDS011;62916;50.044;15.938;2024-02-21T06:59:54;5.40;;;2.40;;
74465;SDS011;62916;50.044;15.938;2024-02-21T07:02:25;4.80;;;1.20;;
74465;SDS011;62916;50.044;15.938;2024-02-21T07:04:56;4.70;;;1.30;;
74465;SDS011;62916;50.044;15.938;2024-02-21T07:07:27;4.60;;;1.40;;
74465;SDS011;62916;50.044;15.938;2024-02-21T07:09:58;3.90;;;1.50;;
74465;SDS011;62916;50.044;15.938;2024-02-21T07:12:29;4.80;;;1.60;;
74465;SDS011;62916;50.044;15.938;2024-02-21T07:15:00;5.10;;;1.30;;
74465;SDS011;62916;50.044;15.938;2024-02-21T07:17:34;3.40;;;1.30;;
74465;SDS011;62916;50.044;15.938;2024-02-21T07:20:06;4.20;;;1.20;;
74465;SDS011;62916;50.044;15.938;2024-02-21T07:22:37;5.30;;;1.80;;
74465;SDS011;62916;50.044;15.938;2024-02-21T07:25:09;5.10;;;1.40;;
74465;SDS011;62916;50.044;15.938;2024-02-21T07:27:40;3.80;;;1.20;;
74465;SDS011;62916;50.044;15.938;2024-02-21T07:30:12;2.30;;;1.10;;
74465;SDS011;62916;50.044;15.938;2024-02-21T07:32:44;5.20;;;1.70;;
74465;SDS011;62916;50.044;15.938;2024-02-21T07:35:18;4.20;;;1.30;;
74465;SDS011;62916;50.044;15.938;2024-02-21T07:37:49;4.80;;;2.00;;
74465;SDS011;62916;50.044;15.938;2024-02-21T07:40:20;2.90;;;1.50;;
74465;SDS011;62916;50.044;15.938;2024-02-21T07:42:51;5.00;;;1.60;;
74465;SDS011;62916;50.044;15.938;2024-02-21T07:45:22;4.20;;;1.40;;
74465;SDS011;62916;50.044;15.938;2024-02-21T07:47:54;3.00;;;1.20;;
74465;SDS011;62916;50.044;15.938;2024-02-21T07:50:25;2.80;;;1.10;;
74465;SDS011;62916;50.044;15.938;2024-02-21T07:52:56;2.20;;;1.30;;
74465;SDS011;62916;50.044;15.938;2024-02-21T07:55:27;3.70;;;1.30;;
74465;SDS011;62916;50.044;15.938;2024-02-21T07:57:58;4.10;;;1.80;;
74465;SDS011;62916;50.044;15.938;2024-02-21T08:00:29;4.00;;;1.00;;
74465;SDS011;62916;50.044;15.938;2024-02-21T08:03:02;4.40;;;1.50;;
74465;SDS011;62916;50.044;15.938;2024-02-21T08:05:35;1.90;;;1.20;;
74465;SDS011;62916;50.044;15.938;2024-02-21T08:08:06;3.30;;;1.40;;
74465;SDS011;62916;50.044;15.938;2024-02-21T08:10:39;4.30;;;1.20;;
74465;SDS011;62916;50.044;15.938;2024-02-21T08:13:10;3.20;;;1.30;;
74465;SDS011;62916;50.044;15.938;2024-02-21T08:15:41;3.60;;;1.60;;
74465;SDS011;62916;50.044;15.938;2024-02-21T08:18:11;3.50;;;1.40;;
74465;SDS011;62916;50.044;15.938;2024-02-21T08:20:42;3.30;;;1.20;;
74465;SDS011;62916;50.044;15.938;2024-02-21T08:23:15;3.60;;;1.60;;
74465;SDS011;62916;50.044;15.938;2024-02-21T08:25:47;2.00;;;1.00;;
74465;SDS011;62916;50.044;15.938;2024-02-21T08:28:18;4.20;;;1.60;;
74465;SDS011;62916;50.044;15.938;2024-02-21T08:30:49;1.90;;;1.30;;
74465;SDS011;62916;50.044;15.938;2024-02-21T08:33:20;2.80;;;1.00;;
74465;SDS011;62916;50.044;15.938;2024-02-21T08:35:53;3.10;;;1.00;;
74465;SDS011;62916;50.044;15.938;2024-02-21T08:38:24;1.40;;;1.20;;
74465;SDS011;62916;50.044;15.938;2024-02-21T08:40:54;2.90;;;1.30;;
74465;SDS011;62916;50.044;15.938;2024-02-21T08:43:25;3.90;;;1.40;;
74465;SDS011;62916;50.044;15.938;2024-02-21T08:45:57;2.30;;;1.10;;
74465;SDS011;62916;50.044;15.938;2024-02-21T08:48:28;3.20;;;1.40;;
74465;SDS011;62916;50.044;15.938;2024-02-21T08:50:59;2.90;;;0.90;;
74465;SDS011;62916;50.044;15.938;2024-02-21T08:53:30;2.80;;;1.10;;
74465;SDS011;62916;50.044;15.938;2024-02-21T08:56:01;2.30;;;1.10;;
74465;SDS011;62916;50.044;15.938;2024-02-21T08:58:32;2.00;;;1.10;;
74465;SDS011;62916;50.044;15.938;2024-02-21T09:01:04;2.80;;;1.20;;
74465;SDS011;62916;50.044;15.938;2024-02-21T09:03:38;3.20;;;1.50;;
74465;SDS011;62916;50.044;15.938;2024-02-21T09:06:10;2.90;;;1.10;;
74465;SDS011;62916;50.044;15.938;2024-02-21T09:08:42;2.10;;;1.00;;
74465;SDS011;62916;50.044;15.938;2024-02-21T09:11:13;1.80;;;1.60;;
74465;SDS011;62916;50.044;15.938;2024-02-21T09:13:44;2.50;;;1.30;;
74465;SDS011;62916;50.044;15.938;2024-02-21T09:16:15;3.00;;;1.10;;
74465;SDS011;62916;50.044;15.938;2024-02-21T09:18:45;2.60;;;1.10;;
74465;SDS011;62916;50.044;15.938;2024-02-21T09:21:16;2.30;;;1.10;;
74465;SDS011;62916;50.044;15.938;2024-02-21T09:23:47;2.40;;;0.90;;
74465;SDS011;62916;50.044;15.938;2024-02-21T09:26:18;2.40;;;1.20;;
74465;SDS011;62916;50.044;15.938;2024-02-21T09:28:49;3.70;;;1.00;;
74465;SDS011;62916;50.044;15.938;2024-02-21T09:31:19;1.80;;;1.00;;
74465;SDS011;62916;50.044;15.938;2024-02-21T09:33:51;2.10;;;1.10;;
74465;SDS011;62916;50.044;15.938;2024-02-21T09:36:23;2.10;;;1.00;;
74465;SDS011;62916;50.044;15.938;2024-02-21T09:38:53;2.50;;;1.50;;
74465;SDS011;62916;50.044;15.938;2024-02-21T09:41:25;3.10;;;1.10;;
74465;SDS011;62916;50.044;15.938;2024-02-21T09:43:56;2.40;;;1.10;;
74465;SDS011;62916;50.044;15.938;2024-02-21T09:46:30;3.40;;;1.20;;
74465;SDS011;62916;50.044;15.938;2024-02-21T09:49:13;2.10;;;1.10;;
74465;SDS011;62916;50.044;15.938;2024-02-21T09:51:53;3.70;;;1.40;;
74465;SDS011;62916;50.044;15.938;2024-02-21T09:54:26;2.10;;;1.00;;
74465;SDS011;62916;50.044;15.938;2024-02-21T09:56:59;2.50;;;1.50;;
74465;SDS011;62916;50.044;15.938;2024-02-21T09:59:30;1.70;;;1.10;;
74465;SDS011;62916;50.044;15.938;2024-02-21T10:02:02;2.60;;;1.20;;
74465;SDS011;62916;50.044;15.938;2024-02-21T10:04:34;3.10;;;1.10;;
74465;SDS011;62916;50.044;15.938;2024-02-21T10:07:05;1.50;;;1.40;;
74465;SDS011;62916;50.044;15.938;2024-02-21T10:09:37;1.90;;;1.20;;
74465;SDS011;62916;50.044;15.938;2024-02-21T10:12:09;1.90;;;1.10;;
74465;SDS011;62916;50.044;15.938;2024-02-21T10:14:41;1.70;;;0.90;;
74465;SDS011;62916;50.044;15.938;2024-02-21T10:17:16;1.80;;;1.10;;
74465;SDS011;62916;50.044;15.938;2024-02-21T10:19:48;1.90;;;1.00;;
74465;SDS011;62916;50.044;15.938;2024-02-21T10:22:20;2.10;;;1.00;;
74465;SDS011;62916;50.044;15.938;2024-02-21T10:24:53;2.20;;;1.20;;
74465;SDS011;62916;50.044;15.938;2024-02-21T10:27:24;2.50;;;1.20;;
74465;SDS011;62916;50.044;15.938;2024-02-21T10:29:55;2.10;;;0.80;;
74465;SDS011;62916;50.044;15.938;2024-02-21T10:32:26;3.00;;;1.10;;
74465;SDS011;62916;50.044;15.938;2024-02-21T10:35:02;2.30;;;1.00;;
74465;SDS011;62916;50.044;15.938;2024-02-21T10:37:33;1.40;;;0.90;;
74465;SDS011;62916;50.044;15.938;2024-02-21T10:40:05;2.10;;;1.10;;
74465;SDS011;62916;50.044;15.938;2024-02-21T10:42:37;2.20;;;1.00;;
74465;SDS011;62916;50.044;15.938;2024-02-21T10:45:09;3.80;;;1.10;;
74465;SDS011;62916;50.044;15.938;2024-02-21T10:47:43;2.10;;;1.20;;
74465;SDS011;62916;50.044;15.938;2024-02-21T10:50:20;1.30;;;0.80;;
74465;SDS011;62916;50.044;15.938;2024-02-21T10:52:59;2.00;;;1.10;;
74465;SDS011;62916;50.044;15.938;2024-02-21T10:55:38;1.60;;;1.10;;
74465;SDS011;62916;50.044;15.938;2024-02-21T10:58:16;2.30;;;1.00;;
74465;SDS011;62916;50.044;15.938;2024-02-21T11:00:48;1.80;;;1.10;;
74465;SDS011;62916;50.044;15.938;2024-02-21T11:03:20;2.60;;;1.10;;
74465;SDS011;62916;50.044;15.938;2024-02-21T11:05:51;2.70;;;1.10;;
74465;SDS011;62916;50.044;15.938;2024-02-21T11:08:23;1.70;;;1.10;;
74465;SDS011;62916;50.044;15.938;2024-02-21T11:10:58;1.80;;;1.20;;
74465;SDS011;62916;50.044;15.938;2024-02-21T11:13:34;1.60;;;0.70;;
74465;SDS011;62916;50.044;15.938;2024-02-21T11:16:10;2.10;;;1.10;;
74465;SDS011;62916;50.044;15.938;2024-02-21T11:18:50;1.90;;;1.10;;
74465;SDS011;62916;50.044;15.938;2024-02-21T11:21:21;3.60;;;1.30;;
74465;SDS011;62916;50.044;15.938;2024-02-21T11:24:04;1.40;;;0.90;;
74465;SDS011;62916;50.044;15.938;2024-02-21T11:26:36;3.40;;;1.20;;
74465;SDS011;62916;50.044;15.938;2024-02-21T11:29:10;2.10;;;1.00;;
74465;SDS011;62916;50.044;15.938;2024-02-21T11:31:41;1.80;;;1.10;;
74465;SDS011;62916;50.044;15.938;2024-02-21T11:34:16;2.20;;;0.90;;
74465;SDS011;62916;50.044;15.938;2024-02-21T11:36:48;2.00;;;1.00;;
74465;SDS011;62916;50.044;15.938;2024-02-21T11:39:20;2.10;;;1.00;;
74465;SDS011;62916;50.044;15.938;2024-02-21T11:42:03;2.10;;;1.00;;
74465;SDS011;62916;50.044;15.938;2024-02-21T11:44:35;1.60;;;1.00;;
74465;SDS011;62916;50.044;15.938;2024-02-21T11:47:08;2.70;;;1.50;;
74465;SDS011;62916;50.044;15.938;2024-02-21T11:49:42;1.80;;;1.30;;
74465;SDS011;62916;50.044;15.938;2024-02-21T11:52:14;1.50;;;0.90;;
74465;SDS011;62916;50.044;15.938;2024-02-21T11:54:47;1.40;;;1.00;;
74465;SDS011;62916;50.044;15.938;2024-02-21T11:57:19;1.60;;;0.90;;
74465;SDS011;62916;50.044;15.938;2024-02-21T11:59:50;2.00;;;1.20;;
74465;SDS011;62916;50.044;15.938;2024-02-21T12:02:27;1.40;;;1.10;;
74465;SDS011;62916;50.044;15.938;2024-02-21T12:04:58;1.80;;;0.70;;
74465;SDS011;62916;50.044;15.938;2024-02-21T12:07:33;2.50;;;1.10;;
74465;SDS011;62916;50.044;15.938;2024-02-21T12:10:08;2.00;;;0.90;;
74465;SDS011;62916;50.044;15.938;2024-02-21T12:12:39;1.40;;;1.10;;
74465;SDS011;62916;50.044;15.938;2024-02-21T12:15:10;1.40;;;0.80;;
74465;SDS011;62916;50.044;15.938;2024-02-21T12:17:41;1.50;;;1.00;;
74465;SDS011;62916;50.044;15.938;2024-02-21T12:20:12;1.30;;;1.00;;
74465;SDS011;62916;50.044;15.938;2024-02-21T12:22:43;1.80;;;1.00;;
74465;SDS011;62916;50.044;15.938;2024-02-21T12:25:18;2.00;;;1.10;;
74465;SDS011;62916;50.044;15.938;2024-02-21T12:27:51;2.50;;;1.20;;
74465;SDS011;62916;50.044;15.938;2024-02-21T12:30:24;1.70;;;1.20;;
74465;SDS011;62916;50.044;15.938;2024-02-21T12:32:55;1.70;;;1.40;;
74465;SDS011;62916;50.044;15.938;2024-02-21T12:35:27;1.40;;;0.90;;
74465;SDS011;62916;50.044;15.938;2024-02-21T12:38:00;2.00;;;1.00;;
74465;SDS011;62916;50.044;15.938;2024-02-21T12:40:31;1.30;;;1.20;;
74465;SDS011;62916;50.044;15.938;2024-02-21T12:43:02;1.90;;;0.90;;
74465;SDS011;62916;50.044;15.938;2024-02-21T12:45:33;1.60;;;0.90;;
74465;SDS011;62916;50.044;15.938;2024-02-21T12:48:05;1.50;;;1.00;;
74465;SDS011;62916;50.044;15.938;2024-02-21T12:50:36;1.50;;;1.20;;
74465;SDS011;62916;50.044;15.938;2024-02-21T12:53:07;0.90;;;0.90;;
74465;SDS011;62916;50.044;15.938;2024-02-21T12:55:52;2.00;;;0.70;;
74465;SDS011;62916;50.044;15.938;2024-02-21T12:58:24;1.30;;;1.00;;
74465;SDS011;62916;50.044;15.938;2024-02-21T13:00:56;2.20;;;1.10;;
74465;SDS011;62916;50.044;15.938;2024-02-21T13:03:28;2.30;;;0.70;;
74465;SDS011;62916;50.044;15.938;2024-02-21T13:06:00;2.30;;;1.00;;
74465;SDS011;62916;50.044;15.938;2024-02-21T13:08:32;1.30;;;0.90;;
74465;SDS011;62916;50.044;15.938;2024-02-21T13:11:04;1.70;;;0.80;;
74465;SDS011;62916;50.044;15.938;2024-02-21T13:13:35;2.20;;;1.10;;
74465;SDS011;62916;50.044;15.938;2024-02-21T13:16:06;2.40;;;0.90;;
74465;SDS011;62916;50.044;15.938;2024-02-21T13:18:38;1.40;;;0.80;;
74465;SDS011;62916;50.044;15.938;2024-02-21T13:21:11;1.60;;;1.20;;
74465;SDS011;62916;50.044;15.938;2024-02-21T13:23:42;1.70;;;1.10;;
74465;SDS011;62916;50.044;15.938;2024-02-21T13:26:14;1.40;;;1.30;;
74465;SDS011;62916;50.044;15.938;2024-02-21T13:28:45;1.60;;;0.90;;
74465;SDS011;62916;50.044;15.938;2024-02-21T13:31:16;1.30;;;1.00;;
74465;SDS011;62916;50.044;15.938;2024-02-21T13:33:47;1.00;;;0.80;;
74465;SDS011;62916;50.044;15.938;2024-02-21T13:36:18;1.60;;;1.10;;
74465;SDS011;62916;50.044;15.938;2024-02-21T13:38:49;2.20;;;1.10;;
74465;SDS011;62916;50.044;15.938;2024-02-21T13:41:20;1.60;;;0.80;;
74465;SDS011;62916;50.044;15.938;2024-02-21T13:43:51;0.80;;;0.60;;
74465;SDS011;62916;50.044;15.938;2024-02-21T13:46:22;1.40;;;0.70;;
74465;SDS011;62916;50.044;15.938;2024-02-21T13:48:56;1.30;;;0.90;;
74465;SDS011;62916;50.044;15.938;2024-02-21T13:51:34;1.30;;;0.90;;
74465;SDS011;62916;50.044;15.938;2024-02-21T13:54:06;1.40;;;1.10;;
74465;SDS011;62916;50.044;15.938;2024-02-21T13:56:37;2.00;;;0.80;;
74465;SDS011;62916;50.044;15.938;2024-02-21T13:59:08;2.90;;;1.10;;
74465;SDS011;62916;50.044;15.938;2024-02-21T14:01:39;1.10;;;1.00;;
74465;SDS011;62916;50.044;15.938;2024-02-21T14:04:11;1.60;;;0.90;;
74465;SDS011;62916;50.044;15.938;2024-02-21T14:06:42;1.90;;;1.70;;
74465;SDS011;62916;50.044;15.938;2024-02-21T14:09:13;1.80;;;0.90;;
74465;SDS011;62916;50.044;15.938;2024-02-21T14:11:43;1.70;;;1.40;;
74465;SDS011;62916;50.044;15.938;2024-02-21T14:14:15;1.00;;;0.80;;
74465;SDS011;62916;50.044;15.938;2024-02-21T14:16:45;1.10;;;0.80;;
74465;SDS011;62916;50.044;15.938;2024-02-21T14:19:17;1.80;;;1.00;;
74465;SDS011;62916;50.044;15.938;2024-02-21T14:21:49;1.30;;;0.80;;
74465;SDS011;62916;50.044;15.938;2024-02-21T14:24:20;1.30;;;1.20;;
74465;SDS011;62916;50.044;15.938;2024-02-21T14:26:51;1.90;;;0.90;;
74465;SDS011;62916;50.044;15.938;2024-02-21T14:29:23;1.30;;;1.00;;
74465;SDS011;62916;50.044;15.938;2024-02-21T14:31:54;1.10;;;1.00;;
74465;SDS011;62916;50.044;15.938;2024-02-21T14:34:25;2.10;;;1.10;;
74465;SDS011;62916;50.044;15.938;2024-02-21T14:36:56;1.60;;;1.10;;
74465;SDS011;62916;50.044;15.938;2024-02-21T14:39:29;2.00;;;0.80;;
74465;SDS011;62916;50.044;15.938;2024-02-21T14:42:02;2.20;;;1.20;;
74465;SDS011;62916;50.044;15.938;2024-02-21T14:44:34;2.50;;;0.90;;
74465;SDS011;62916;50.044;15.938;2024-02-21T14:47:06;2.10;;;1.30;;
74465;SDS011;62916;50.044;15.938;2024-02-21T14:49:37;1.50;;;1.10;;
74465;SDS011;62916;50.044;15.938;2024-02-21T14:52:08;4.50;;;1.30;;
74465;SDS011;62916;50.044;15.938;2024-02-21T14:54:39;7.20;;;1.70;;
74465;SDS011;62916;50.044;15.938;2024-02-21T14:57:14;4.20;;;1.30;;
74465;SDS011;62916;50.044;15.938;2024-02-21T14:59:44;8.40;;;1.40;;
74465;SDS011;62916;50.044;15.938;2024-02-21T15:02:17;8.10;;;1.20;;
74465;SDS011;62916;50.044;15.938;2024-02-21T15:04:49;13.70;;;1.90;;
74465;SDS011;62916;50.044;15.938;2024-02-21T15:07:20;16.00;;;2.70;;
74465;SDS011;62916;50.044;15.938;2024-02-21T15:09:53;14.40;;;2.10;;
74465;SDS011;62916;50.044;15.938;2024-02-21T15:12:24;11.40;;;2.10;;
74465;SDS011;62916;50.044;15.938;2024-02-21T15:14:55;8.20;;;1.60;;
74465;SDS011;62916;50.044;15.938;2024-02-21T15:17:27;7.30;;;1.50;;